Latest Weather Observations for Cabramurra

IDN60901

Issued at 4:45 pm EST Wednesday 20 August 2014 (issued every 10 minutes, with the page automatically refreshed every 10 minutes)

About weather observations | Map of Canberra area stations | Latest observations for Canberra area | Other Formats
Station Details ID: 072161 Name: CABRAMURRA SMHEA AWS Lat: -35.94 Lon: 148.38 Height: 1482.4 m
Data from the previous 72 hours. | See also: Recent months at Cabramurra
Date/Time
EST
Tmp

°C
App
Tmp
°C
Dew
Point
°C
Rel
Hum
%
Delta-T

°C
Wind Press
QNH
hPa
Press
MSL
hPa
Rain
since
9 am
mm
Dir
 
Spd
km/h
Gust
km/h
Spd
kts
Gust
kts
20/04:30pm 6.5 2.3 -0.9 59 3.1 W 11 17 6 9 - - 0.0
20/04:00pm 7.1 2.6 -3.4 47 4.2 WNW 11 17 6 9 - - 0.0
20/03:30pm 7.2 2.0 -2.5 50 3.9 W 15 20 8 11 - - 0.0
20/03:00pm 7.5 2.7 -2.2 50 4.0 WNW 13 19 7 10 - - 0.0
20/02:30pm 7.8 3.2 -1.4 52 3.8 W 13 20 7 11 - - 0.0
20/02:00pm 7.7 3.1 -1.0 54 3.7 NW 13 20 7 11 - - 0.0
20/01:30pm 7.3 2.6 -1.6 53 3.7 W 13 19 7 10 - - 0.0
20/01:00pm 6.9 1.5 -4.2 45 4.3 WNW 15 19 8 10 - - 0.0
20/12:30pm 6.8 1.3 -5.5 41 4.6 WNW 15 20 8 11 - - 0.0
20/12:00pm 6.7 1.9 -6.3 39 4.8 W 11 19 6 10 - - 0.0
20/11:30am 6.9 2.9 -6.1 39 4.8 WNW 7 11 4 6 - - 0.0
20/11:00am 6.2 2.1 -6.4 40 4.6 NW 7 11 4 6 - - 0.0
20/10:30am 5.7 1.2 -7.2 39 4.6 NW 9 13 5 7 - - 0.0
20/10:00am 5.5 1.2 -8.4 36 4.8 NW 7 9 4 5 - - 0.0
20/09:30am 5.6 2.2 -9.4 33 5.0 NW 2 7 1 4 - - 0.0
20/09:00am 4.8 1.9 -8.0 39 4.4 CALM 0 0 0 0 - - 0.0
20/08:30am 4.1 -0.1 -7.6 42 4.0 N 7 9 4 5 - - 0.0
20/08:00am 4.1 0.7 -15.1 23 5.7 CALM 0 0 0 0 - - 0.0
20/07:30am 3.3 0.0 -13.0 29 5.0 CALM 0 6 0 3 - - 0.0
20/07:00am 3.3 -1.4 -14.8 25 5.3 S 7 7 4 4 - - 0.0
20/06:30am 3.0 -2.1 -14.6 26 5.2 SSE 9 11 5 6 - - 0.0
20/06:00am 3.4 -1.6 -14.2 26 5.3 S 9 9 5 5 - - 0.0
20/05:30am 3.3 -1.6 -11.8 32 4.8 S 9 9 5 5 - - 0.0
20/05:00am 3.0 -1.5 -12.4 31 4.8 S 7 9 4 5 - - 0.0
20/04:30am 2.6 -1.8 -10.3 38 4.2 SSE 7 9 4 5 - - 0.0
20/04:00am 2.6 -0.3 -7.6 47 3.6 CALM 0 0 0 0 - - 0.0
20/03:30am 2.1 -0.6 -6.2 54 3.0 CALM 0 0 0 0 - - 0.0
20/03:00am 2.6 0.1 -4.1 61 2.5 CALM 0 0 0 0 - - 0.0
20/02:30am 2.0 -0.2 -1.8 76 1.5 CALM 0 7 0 4 - - 0.0
20/02:00am 1.6 -2.0 -2.2 76 1.5 SSE 7 11 4 6 - - 0.0
20/01:30am 1.6 -2.3 -6.7 54 2.9 SE 6 7 3 4 - - 0.0
20/01:00am 1.3 -2.7 -5.2 62 2.4 SSE 7 9 4 5 - - 0.0
20/12:30am 1.2 -3.0 -3.7 70 1.9 SE 9 11 5 6 - - 0.0
20/12:00am 1.2 -3.5 -5.3 62 2.4 SE 11 13 6 7 - - 0.0
 
Date/Time
EST
Tmp

°C
App
Tmp
°C
Dew
Point
°C
Rel
Hum
%
Delta-T

°C
Wind Press
QNH
hPa
Press
MSL
hPa
Rain
since
9 am
mm
Dir
 
Spd
km/h
Gust
km/h
Spd
kts
Gust
kts
19/11:30pm 0.5 -4.3 -5.7 63 2.2 ESE 11 17 6 9 - - 0.0
19/11:00pm 1.1 -3.7 -5.8 60 2.5 ESE 11 15 6 8 - - 0.0
19/10:30pm 1.1 -3.9 -4.7 65 2.1 ESE 13 15 7 8 - - 0.0
19/10:00pm 1.1 -3.1 -3.7 70 1.8 ESE 9 17 5 9 - - 0.0
19/09:30pm 1.3 -3.1 -2.6 75 1.6 ESE 11 13 6 7 - - 0.0
19/09:00pm 1.9 -2.5 -2.6 72 1.7 ESE 11 15 6 8 - - 0.0
19/08:30pm 1.8 -3.0 -2.5 73 1.6 ESE 13 17 7 9 - - 0.0
19/08:00pm 1.6 -3.9 -1.8 78 1.3 ESE 17 24 9 13 - - 0.0
19/07:30pm 1.8 -3.2 -1.3 80 1.2 ESE 15 24 8 13 - - 0.0
19/07:00pm 1.9 -4.0 -0.5 84 1.0 ESE 20 26 11 14 - - 0.0
19/06:30pm 2.3 -3.0 -0.8 80 1.2 ESE 17 24 9 13 - - 0.0
19/06:00pm 2.8 -2.8 -0.1 81 1.2 E 19 24 10 13 - - 0.0
19/05:30pm 3.6 -1.2 0.0 77 1.5 ESE 15 19 8 10 - - 0.0
19/05:00pm 4.2 0.4 -0.4 72 1.9 ESE 9 13 5 7 - - 0.0
19/04:30pm 4.9 0.6 -1.8 62 2.7 SE 11 17 6 9 - - 0.0
19/04:00pm 5.4 0.2 -2.9 55 3.3 S 15 26 8 14 - - 0.0
19/03:30pm 6.3 0.5 -4.7 45 4.2 SSE 17 26 9 14 - - 0.0
19/03:00pm 7.1 1.8 -0.4 59 3.2 S 17 28 9 15 - - 0.0
19/02:30pm 6.7 1.4 1.6 70 2.3 S 19 30 10 16 - - 0.0
19/02:00pm 6.9 2.6 1.0 66 2.6 S 13 22 7 12 - - 0.0
19/01:30pm 6.3 0.6 0.6 67 2.5 SE 20 33 11 18 - - 0.0
19/01:00pm 5.3 -1.1 1.2 75 1.8 SSE 24 41 13 22 - - 0.0
19/12:43pm 4.6 -3.4 0.6 75 1.7 SE 32 50 17 27 - - 0.0
19/12:30pm 4.5 -2.7 0.8 77 1.6 SE 28 44 15 24 - - 0.0
19/12:00pm 4.5 -2.2 1.7 82 1.2 SSE 26 41 14 22 - - 0.0
19/11:30am 3.9 -3.9 1.6 85 1.0 SE 32 54 17 29 - - 0.0
19/11:27am 3.9 -3.5 1.6 85 1.0 SE 30 50 16 27 - - 0.0
19/11:00am 3.7 -3.6 2.2 90 0.7 SE 30 44 16 24 - - 0.0
19/10:30am 3.6 -3.4 2.1 90 0.7 SE 28 46 15 25 - - 0.0
19/10:23am 3.5 -3.5 2.2 91 0.6 SE 28 46 15 25 - - 0.0
19/10:00am 3.3 -2.1 2.6 95 0.3 SE 20 32 11 17 - - 0.0
19/09:30am 2.9 -1.9 2.8 99 0.0 SSE 17 30 9 16 - - 0.0
19/09:00am 2.9 -2.6 2.0 94 0.4 SSE 20 35 11 19 - - 1.0
19/08:30am 2.7 -3.9 2.3 97 0.2 SE 26 43 14 23 - - 1.0
19/08:00am 2.5 -2.9 2.2 98 0.1 SE 20 32 11 17 - - 1.0
19/07:30am 2.3 -3.5 2.2 99 0.0 SSE 22 41 12 22 - - 1.0
19/07:00am 2.3 -3.1 2.2 99 0.0 SE 20 35 11 19 - - 1.0
19/06:30am 2.3 -3.2 2.0 98 0.1 SSE 20 33 11 18 - - 1.0
19/06:00am 2.5 -4.6 1.6 94 0.4 SE 28 43 15 23 - - 1.0
19/05:30am 2.3 -5.5 1.9 97 0.2 SE 32 50 17 27 - - 1.0
19/05:00am 2.5 -4.9 1.9 96 0.3 SE 30 50 16 27 - - 1.0
19/04:30am 2.6 -5.4 1.6 93 0.4 ESE 33 54 18 29 - - 1.0
19/04:00am 2.5 -5.6 1.3 92 0.5 ESE 33 52 18 28 - - 1.0
19/03:35am 2.6 -5.4 1.6 93 0.4 ESE 33 57 18 31 - - 1.0
19/03:30am 2.5 -5.5 1.5 93 0.4 ESE 33 48 18 26 - - 1.0
19/03:00am 2.5 -6.7 1.3 92 0.5 ESE 39 59 21 32 - - 1.0
19/02:30am 2.6 -7.9 1.4 92 0.5 ESE 46 67 25 36 - - 1.0
19/02:00am 2.4 -6.0 1.4 93 0.4 ESE 35 61 19 33 - - 1.0
19/01:30am 2.5 -7.5 1.2 91 0.5 ESE 43 61 23 33 - - 1.0
19/01:00am 2.3 -4.9 0.7 89 0.7 SE 28 46 15 25 - - 1.0
19/12:30am 2.4 -5.6 0.5 87 0.8 SE 32 65 17 35 - - 1.0
19/12:00am 2.4 -5.7 0.9 90 0.6 SE 33 52 18 28 - - 1.0
 
Date/Time
EST
Tmp

°C
App
Tmp
°C
Dew
Point
°C
Rel
Hum
%
Delta-T

°C
Wind Press
QNH
hPa
Press
MSL
hPa
Rain
since
9 am
mm
Dir
 
Spd
km/h
Gust
km/h
Spd
kts
Gust
kts
18/11:30pm 2.4 -5.7 0.9 90 0.6 SE 33 69 18 37 - - 1.0
18/11:00pm 2.5 -5.9 1.3 92 0.5 SE 35 54 19 29 - - 1.0
18/10:30pm 2.7 -5.1 1.4 91 0.6 SE 32 57 17 31 - - 1.0
18/10:00pm 2.7 -4.7 1.8 94 0.4 SE 30 56 16 30 - - 1.0
18/09:46pm 2.6 -4.4 2.0 96 0.3 SE 28 46 15 25 - - 1.0
18/09:30pm 2.6 -4.0 2.2 97 0.2 SE 26 50 14 27 - - 1.0
18/09:12pm 2.9 -4.1 2.0 94 0.4 SE 28 61 15 33 - - 1.0
18/09:00pm 2.6 -2.8 2.2 97 0.2 SSE 20 35 11 19 - - 1.0
18/08:30pm 2.8 -4.1 2.4 97 0.2 SE 28 48 15 26 - - 1.0
18/08:00pm 2.4 -1.3 2.3 99 0.0 SSW 11 19 6 10 - - 1.0
18/07:30pm 2.7 -5.0 2.4 98 0.1 SE 32 50 17 27 - - 1.0
18/07:00pm 2.7 -2.7 2.4 98 0.1 SSE 20 43 11 23 - - 1.0
18/06:30pm 2.5 -4.9 1.9 96 0.3 SE 30 48 16 26 - - 1.0
18/06:00pm 2.8 -5.2 1.8 93 0.4 SE 33 52 18 28 - - 1.0
18/05:38pm 3.3 -5.1 1.3 87 0.9 SE 35 54 19 29 - - 1.0
18/05:30pm 3.3 -4.7 1.7 89 0.7 SE 33 48 18 26 - - 1.0
18/05:00pm 3.2 -3.4 2.3 94 0.4 SE 26 43 14 23 - - 1.0
18/04:30pm 2.8 -3.3 2.7 99 0.0 SE 24 43 13 23 - - 1.0
18/04:00pm 4.1 -1.1 2.5 89 0.7 SE 19 35 10 19 - - 0.8
18/03:30pm 4.2 -1.0 2.7 90 0.7 SSE 19 32 10 17 - - 0.8
18/03:00pm 5.1 -1.6 1.2 76 1.7 SE 26 50 14 27 - - 0.6
18/02:30pm 4.0 -1.1 2.8 92 0.5 ESE 19 33 10 18 - - 0.6
18/02:06pm 5.1 -2.0 1.2 76 1.7 SE 28 46 15 25 - - 0.4
18/02:00pm 5.1 -1.6 1.2 76 1.7 SE 26 46 14 25 - - 0.4
18/01:30pm 4.5 -1.5 3.2 91 0.6 SSE 24 43 13 23 - - 0.4
18/01:03pm 4.2 -2.6 3.3 94 0.4 ESE 28 46 15 25 - - 0.4
18/01:00pm 4.0 -2.0 3.3 95 0.3 ESE 24 41 13 22 - - 0.4
18/12:30pm 4.1 -1.1 3.4 95 0.3 SE 20 28 11 15 - - 0.2
18/12:00pm 4.4 -0.9 2.8 89 0.7 SSE 20 46 11 25 - - 0.0
18/11:48am 4.6 -2.4 2.1 84 1.1 SSE 28 46 15 25 - - 0.0
18/11:30am 4.6 -2.0 2.0 83 1.1 SE 26 46 14 25 - - 0.0
18/11:00am 4.2 -1.7 1.9 85 1.0 SE 22 43 12 23 - - 0.0
18/10:30am 3.8 -1.8 1.4 84 1.0 SE 20 39 11 21 - - 0.0
18/10:02am 3.5 -3.5 1.7 88 0.8 SE 28 50 15 27 - - 0.0
18/10:00am 3.5 -3.2 1.7 88 0.8 SE 26 50 14 27 - - 0.0
18/09:38am 3.5 -3.8 2.2 91 0.6 SE 30 57 16 31 - - 0.0
18/09:30am 3.5 -4.2 2.3 92 0.5 SE 32 43 17 23 - - 0.0
18/09:00am 3.1 -5.0 3.0 99 0.0 SE 35 56 19 30 - - 5.0
18/08:48am 3.2 -3.6 2.9 98 0.1 SE 28 56 15 30 - - 5.0
18/08:30am 3.1 -3.0 3.0 99 0.0 SE 24 44 13 24 - - 5.0
18/08:00am 2.9 -1.9 2.8 99 0.0 SSE 17 35 9 19 - - 4.8
18/07:32am 3.0 -3.8 2.9 99 0.0 SE 28 57 15 31 - - 4.8
18/07:30am 2.9 -3.2 2.8 99 0.0 SE 24 43 13 23 - - 4.8
18/07:00am 2.8 -4.1 2.7 99 0.0 ESE 28 50 15 27 - - 4.2
18/06:35am 3.2 -6.5 3.1 99 0.0 SE 43 63 23 34 - - 4.2
18/06:30am 2.9 -2.8 2.8 99 0.0 SE 22 41 12 22 - - 4.2
18/06:12am 3.0 -3.8 2.9 99 0.0 SE 28 56 15 30 - - 4.0
18/06:00am 2.8 -3.7 2.7 99 0.0 SE 26 37 14 20 - - 4.0
18/05:30am 2.6 -3.5 2.5 99 0.0 SE 24 35 13 19 - - 3.8
18/05:16am 2.6 -4.3 2.5 99 0.0 SE 28 50 15 27 - - 3.6
18/05:00am 2.6 -2.2 2.5 99 0.0 SE 17 35 9 19 - - 3.2
18/04:30am 2.6 -2.8 2.5 99 0.0 SE 20 35 11 19 - - 3.0
18/04:18am 2.7 -4.2 2.6 99 0.0 SE 28 46 15 25 - - 2.8
18/04:00am 2.6 -3.5 2.5 99 0.0 SE 24 43 13 23 - - 2.6
18/03:30am 2.5 -4.4 2.4 99 0.0 SE 28 48 15 26 - - 2.2
18/03:10am 2.7 -5.1 2.6 99 0.0 SE 33 54 18 29 - - 2.0
18/03:00am 2.5 -4.4 2.4 99 0.0 SE 28 39 15 21 - - 2.0
18/02:30am 2.6 -8.5 2.5 99 0.0 ESE 50 69 27 37 - - 1.8
18/02:00am 2.5 -8.2 2.4 99 0.0 SE 48 74 26 40 - - 1.6
18/01:54am 2.4 -7.4 2.3 99 0.0 SE 43 69 23 37 - - 1.6
18/01:30am 2.2 -5.5 2.1 99 0.0 SE 32 50 17 27 - - 1.6
18/01:00am 2.4 -5.5 2.3 99 0.0 SE 33 57 18 31 - - 1.6
18/12:47am 2.4 -4.5 2.3 99 0.0 SE 28 46 15 25 - - 1.6
18/12:30am 2.5 -4.0 2.4 99 0.0 SSE 26 43 14 23 - - 1.4
18/12:00am 2.1 -4.9 2.0 99 0.0 SE 28 50 15 27 - - 1.4
 
Date/Time
EST
Tmp

°C
App
Tmp
°C
Dew
Point
°C
Rel
Hum
%
Delta-T

°C
Wind Press
QNH
hPa
Press
MSL
hPa
Rain
since
9 am
mm
Dir
 
Spd
km/h
Gust
km/h
Spd
kts
Gust
kts
17/11:31pm 2.3 -4.7 2.2 99 0.0 SE 28 46 15 25 - - 1.2
17/11:30pm 2.3 -4.3 2.2 99 0.0 SE 26 46 14 25 - - 1.2
17/11:00pm 2.3 -4.7 2.2 99 0.0 SE 28 48 15 26 - - 1.0
17/10:58pm 2.4 -4.5 2.3 99 0.0 SE 28 48 15 26 - - 1.0
17/10:30pm 2.5 -2.3 2.4 99 0.0 SSE 17 33 9 18 - - 0.8
17/10:00pm 2.3 -2.9 2.2 99 0.0 SSE 19 39 10 21 - - 0.6
17/09:30pm 1.9 -2.7 1.8 99 0.0 S 15 24 8 13 - - 0.6
17/09:00pm 2.0 -5.0 1.9 99 0.0 SE 28 48 15 26 - - 0.6
17/08:31pm 2.3 -5.0 2.2 99 0.0 SE 30 48 16 26 - - 0.2
17/08:30pm 2.2 -5.5 2.1 99 0.0 SE 32 48 17 26 - - 0.2
17/08:00pm 2.3 -6.0 2.2 99 0.0 ESE 35 54 19 29 - - 0.2
17/07:33pm 2.3 -5.6 2.2 99 0.0 SE 33 52 18 28 - - 0.0
17/07:30pm 2.3 -5.6 2.2 99 0.0 SE 33 50 18 27 - - 0.0
17/07:06pm 2.3 -5.4 2.2 99 0.0 ESE 32 50 17 27 - - 0.0
17/07:00pm 2.3 -5.4 2.2 99 0.0 SE 32 48 17 26 - - 0.0
17/06:30pm 2.4 -6.3 2.3 99 0.0 ESE 37 61 20 33 - - 0.0
17/06:00pm 2.5 -4.8 2.4 99 0.0 SE 30 57 16 31 - - 0.0
17/05:30pm 2.8 -5.0 2.7 99 0.0 SE 33 54 18 29 - - 0.0
17/05:00pm 3.0 -5.9 2.9 99 0.0 ESE 39 57 21 31 - - 0.0

Latest Capital City Observations: Canberra | Sydney | Melbourne | Brisbane | Adelaide | Perth | Hobart | Darwin

Other Formats:

Comma delimited format used in spreadsheet applications
http://www.bom.gov.au/fwo/IDN60903/IDN60903.95916.axf

JavaScript Object Notation format (JSON) in row-major order
http://www.bom.gov.au/fwo/IDN60903/IDN60903.95916.json